DFW weather

Dallas Fort Worth International Airport
Dallas-Fort Worth, Texas, United States

Public forecast

Using degrees Fahrenheit for public forecast. Weather courtesy of forecast.io.

METAR (pilot weather report)

Retrieved 2017/03/29 08:53 UTC (20 minutes ago):

KDFW 290853Z 32009KT 10SM -RA FEW028CB SCT048 OVC090 17/16 A2971

TAF (pilot weather forecast)

Retrieved 2017/03/29 06:24 UTC (3 hours ago):

TAF KDFW 290520Z 2906/3012 16014G24KT P6SM SCT025 BKN080 FM290800 25013KT 6SM -TSRA BKN025 OVC045CB FM291100 16013KT 6SM BR VCSH BKN050 FM291500 19013KT P6SM SCT080 BKN300 FM300300 32016KT P6SM BKN080